sensor_id;sensor_type;location;lat;lon;timestamp;P1;durP1;ratioP1;P2;durP2;ratioP2
54458;SDS011;40368;49.350;8.152;2022-07-29T00:00:46;95;;;151;;
54458;SDS011;40368;49.350;8.152;2022-07-29T00:02:00;191;;;389;;
54458;SDS011;40368;49.350;8.152;2022-07-29T00:03:51;171;;;340;;
54458;SDS011;40368;49.350;8.152;2022-07-29T00:05:42;162;;;305;;
54458;SDS011;40368;49.350;8.152;2022-07-29T00:06:56;97;;;186;;
54458;SDS011;40368;49.350;8.152;2022-07-29T00:08:47;153;;;281;;
54458;SDS011;40368;49.350;8.152;2022-07-29T00:10:39;76;;;151;;
54458;SDS011;40368;49.350;8.152;2022-07-29T00:11:53;134;;;241;;
54458;SDS011;40368;49.350;8.152;2022-07-29T00:13:44;116;;;196;;
54458;SDS011;40368;49.350;8.152;2022-07-29T00:14:58;139;;;265;;
54458;SDS011;40368;49.350;8.152;2022-07-29T00:16:49;98;;;168;;
54458;SDS011;40368;49.350;8.152;2022-07-29T00:18:40;245;;;456;;
54458;SDS011;40368;49.350;8.152;2022-07-29T00:19:55;104;;;183;;
54458;SDS011;40368;49.350;8.152;2022-07-29T00:21:46;89;;;163;;
54458;SDS011;40368;49.350;8.152;2022-07-29T00:23:00;107;;;215;;
54458;SDS011;40368;49.350;8.152;2022-07-29T00:24:51;82;;;158;;
54458;SDS011;40368;49.350;8.152;2022-07-29T00:26:42;78;;;125;;
54458;SDS011;40368;49.350;8.152;2022-07-29T00:27:56;136;;;280;;
54458;SDS011;40368;49.350;8.152;2022-07-29T00:29:48;215;;;381;;
54458;SDS011;40368;49.350;8.152;2022-07-29T00:31:02;280;;;509;;
54458;SDS011;40368;49.350;8.152;2022-07-29T00:32:45;57;;;136;;
54458;SDS011;40368;49.350;8.152;2022-07-29T00:34:36;134;;;257;;
54458;SDS011;40368;49.350;8.152;2022-07-29T00:35:50;209;;;374;;
54458;SDS011;40368;49.350;8.152;2022-07-29T00:37:41;247;;;498;;
54458;SDS011;40368;49.350;8.152;2022-07-29T00:38:55;276;;;546;;
54458;SDS011;40368;49.350;8.152;2022-07-29T00:40:47;216;;;402;;
54458;SDS011;40368;49.350;8.152;2022-07-29T00:42:41;218;;;412;;
54458;SDS011;40368;49.350;8.152;2022-07-29T00:43:52;177;;;339;;
54458;SDS011;40368;49.350;8.152;2022-07-29T00:45:43;219;;;411;;
54458;SDS011;40368;49.350;8.152;2022-07-29T00:46:57;278;;;521;;
54458;SDS011;40368;49.350;8.152;2022-07-29T00:48:48;192;;;333;;
54458;SDS011;40368;49.350;8.152;2022-07-29T00:50:39;216;;;391;;
54458;SDS011;40368;49.350;8.152;2022-07-29T00:51:54;209;;;402;;
54458;SDS011;40368;49.350;8.152;2022-07-29T00:53:45;194;;;355;;
54458;SDS011;40368;49.350;8.152;2022-07-29T00:54:59;102;;;208;;
54458;SDS011;40368;49.350;8.152;2022-07-29T00:56:50;80;;;152;;
54458;SDS011;40368;49.350;8.152;2022-07-29T00:58:41;166;;;315;;
54458;SDS011;40368;49.350;8.152;2022-07-29T00:59:55;253;;;518;;
54458;SDS011;40368;49.350;8.152;2022-07-29T01:01:47;384;;;792;;
54458;SDS011;40368;49.350;8.152;2022-07-29T01:03:38;260;;;516;;
54458;SDS011;40368;49.350;8.152;2022-07-29T01:06:43;134;;;269;;
54458;SDS011;40368;49.350;8.152;2022-07-29T01:07:57;251;;;507;;
54458;SDS011;40368;49.350;8.152;2022-07-29T01:11:40;109;;;224;;
54458;SDS011;40368;49.350;8.152;2022-07-29T01:12:54;152;;;240;;
54458;SDS011;40368;49.350;8.152;2022-07-29T01:14:45;85;;;129;;
54458;SDS011;40368;49.350;8.152;2022-07-29T01:16:01;50;;;81;;
54458;SDS011;40368;49.350;8.152;2022-07-29T01:17:52;381;;;483;;
54458;SDS011;40368;49.350;8.152;2022-07-29T01:19:45;204;;;254;;
54458;SDS011;40368;49.350;8.152;2022-07-29T01:21:01;111;;;133;;
54458;SDS011;40368;49.350;8.152;2022-07-29T01:22:53;194;;;240;;
54458;SDS011;40368;49.350;8.152;2022-07-29T01:24:46;99;;;114;;
54458;SDS011;40368;49.350;8.152;2022-07-29T01:25:57;174;;;262;;
54458;SDS011;40368;49.350;8.152;2022-07-29T01:27:47;142;;;192;;
54458;SDS011;40368;49.350;8.152;2022-07-29T01:28:59;68;;;153;;
54458;SDS011;40368;49.350;8.152;2022-07-29T01:32:33;82;;;124;;
54458;SDS011;40368;49.350;8.152;2022-07-29T01:33:48;99;;;128;;
54458;SDS011;40368;49.350;8.152;2022-07-29T01:35:01;73;;;113;;
54458;SDS011;40368;49.350;8.152;2022-07-29T01:36:55;73;;;123;;
54458;SDS011;40368;49.350;8.152;2022-07-29T01:38:42;67;;;126;;
54458;SDS011;40368;49.350;8.152;2022-07-29T01:39:57;66;;;109;;
54458;SDS011;40368;49.350;8.152;2022-07-29T01:41:49;81;;;128;;
54458;SDS011;40368;49.350;8.152;2022-07-29T01:43:40;56;;;84;;
54458;SDS011;40368;49.350;8.152;2022-07-29T01:44:54;45;;;67;;
54458;SDS011;40368;49.350;8.152;2022-07-29T01:46:46;98;;;130;;
54458;SDS011;40368;49.350;8.152;2022-07-29T01:47:59;62;;;79;;
54458;SDS011;40368;49.350;8.152;2022-07-29T01:49:50;27;;;43;;
54458;SDS011;40368;49.350;8.152;2022-07-29T01:51:41;27;;;55;;
54458;SDS011;40368;49.350;8.152;2022-07-29T01:52:56;30;;;38;;
54458;SDS011;40368;49.350;8.152;2022-07-29T01:54:47;32;;;40;;
54458;SDS011;40368;49.350;8.152;2022-07-29T01:56:00;48;;;72;;
54458;SDS011;40368;49.350;8.152;2022-07-29T01:57:51;24;;;86;;
54458;SDS011;40368;49.350;8.152;2022-07-29T01:59:42;37;;;47;;
54458;SDS011;40368;49.350;8.152;2022-07-29T02:00:56;60;;;88;;
54458;SDS011;40368;49.350;8.152;2022-07-29T02:02:48;75;;;101;;
54458;SDS011;40368;49.350;8.152;2022-07-29T02:04:39;65;;;90;;
54458;SDS011;40368;49.350;8.152;2022-07-29T02:05:53;61;;;95;;
54458;SDS011;40368;49.350;8.152;2022-07-29T02:07:44;76;;;109;;
54458;SDS011;40368;49.350;8.152;2022-07-29T02:08:58;72;;;125;;
54458;SDS011;40368;49.350;8.152;2022-07-29T02:10:49;41;;;56;;
54458;SDS011;40368;49.350;8.152;2022-07-29T02:12:41;46;;;62;;
54458;SDS011;40368;49.350;8.152;2022-07-29T02:13:55;52;;;79;;
54458;SDS011;40368;49.350;8.152;2022-07-29T02:15:46;74;;;86;;
54458;SDS011;40368;49.350;8.152;2022-07-29T02:17:00;41;;;101;;
54458;SDS011;40368;49.350;8.152;2022-07-29T02:18:52;53;;;90;;
54458;SDS011;40368;49.350;8.152;2022-07-29T02:20:43;47;;;62;;
54458;SDS011;40368;49.350;8.152;2022-07-29T02:21:57;32;;;58;;
54458;SDS011;40368;49.350;8.152;2022-07-29T02:23:48;57;;;94;;
54458;SDS011;40368;49.350;8.152;2022-07-29T02:25:39;39;;;55;;
54458;SDS011;40368;49.350;8.152;2022-07-29T02:26:54;30;;;43;;
54458;SDS011;40368;49.350;8.152;2022-07-29T02:28:44;45;;;76;;
54458;SDS011;40368;49.350;8.152;2022-07-29T02:29:58;42;;;110;;
54458;SDS011;40368;49.350;8.152;2022-07-29T02:31:41;55;;;71;;
54458;SDS011;40368;49.350;8.152;2022-07-29T02:33:32;33;;;46;;
54458;SDS011;40368;49.350;8.152;2022-07-29T02:34:47;28;;;61;;
54458;SDS011;40368;49.350;8.152;2022-07-29T02:36:38;61;;;79;;
54458;SDS011;40368;49.350;8.152;2022-07-29T02:37:52;43;;;69;;
54458;SDS011;40368;49.350;8.152;2022-07-29T02:39:43;40;;;73;;
54458;SDS011;40368;49.350;8.152;2022-07-29T02:40:57;43;;;66;;
54458;SDS011;40368;49.350;8.152;2022-07-29T02:42:48;35;;;40;;
54458;SDS011;40368;49.350;8.152;2022-07-29T02:44:40;43;;;58;;
54458;SDS011;40368;49.350;8.152;2022-07-29T02:45:54;56;;;80;;
54458;SDS011;40368;49.350;8.152;2022-07-29T02:47:47;69;;;79;;
54458;SDS011;40368;49.350;8.152;2022-07-29T02:49:02;26;;;30;;
54458;SDS011;40368;49.350;8.152;2022-07-29T02:50:51;39;;;67;;
54458;SDS011;40368;49.350;8.152;2022-07-29T02:52:42;75;;;113;;
54458;SDS011;40368;49.350;8.152;2022-07-29T02:53:56;26;;;30;;
54458;SDS011;40368;49.350;8.152;2022-07-29T02:55:48;28;;;42;;
54458;SDS011;40368;49.350;8.152;2022-07-29T02:57:39;34;;;55;;
54458;SDS011;40368;49.350;8.152;2022-07-29T02:58:53;68;;;115;;
54458;SDS011;40368;49.350;8.152;2022-07-29T03:00:43;44;;;86;;
54458;SDS011;40368;49.350;8.152;2022-07-29T03:01:57;53;;;110;;
54458;SDS011;40368;49.350;8.152;2022-07-29T03:03:49;80;;;139;;
54458;SDS011;40368;49.350;8.152;2022-07-29T03:05:40;94;;;150;;
54458;SDS011;40368;49.350;8.152;2022-07-29T03:06:55;48;;;78;;
54458;SDS011;40368;49.350;8.152;2022-07-29T03:08:45;40;;;85;;
54458;SDS011;40368;49.350;8.152;2022-07-29T03:09:59;50;;;82;;
54458;SDS011;40368;49.350;8.152;2022-07-29T03:11:50;50;;;78;;
54458;SDS011;40368;49.350;8.152;2022-07-29T03:13:41;28;;;33;;
54458;SDS011;40368;49.350;8.152;2022-07-29T03:14:56;33;;;64;;
54458;SDS011;40368;49.350;8.152;2022-07-29T03:16:47;22;;;58;;
54458;SDS011;40368;49.350;8.152;2022-07-29T03:18:01;24;;;49;;
54458;SDS011;40368;49.350;8.152;2022-07-29T03:19:52;49;;;81;;
54458;SDS011;40368;49.350;8.152;2022-07-29T03:21:43;36;;;56;;
54458;SDS011;40368;49.350;8.152;2022-07-29T03:22:57;47;;;71;;
54458;SDS011;40368;49.350;8.152;2022-07-29T03:24:49;46;;;66;;
54458;SDS011;40368;49.350;8.152;2022-07-29T03:26:40;48;;;57;;
54458;SDS011;40368;49.350;8.152;2022-07-29T03:27:54;41;;;72;;
54458;SDS011;40368;49.350;8.152;2022-07-29T03:29:45;38;;;50;;
54458;SDS011;40368;49.350;8.152;2022-07-29T03:30:59;34;;;61;;
54458;SDS011;40368;49.350;8.152;2022-07-29T03:32:42;30;;;61;;
54458;SDS011;40368;49.350;8.152;2022-07-29T03:34:33;21;;;53;;
54458;SDS011;40368;49.350;8.152;2022-07-29T03:35:47;32;;;62;;
54458;SDS011;40368;49.350;8.152;2022-07-29T03:37:39;24;;;48;;
54458;SDS011;40368;49.350;8.152;2022-07-29T03:38:53;29;;;61;;
54458;SDS011;40368;49.350;8.152;2022-07-29T03:40:46;27;;;37;;
54458;SDS011;40368;49.350;8.152;2022-07-29T03:41:58;19;;;44;;
54458;SDS011;40368;49.350;8.152;2022-07-29T03:43:49;21;;;61;;
54458;SDS011;40368;49.350;8.152;2022-07-29T03:45:41;21;;;55;;
54458;SDS011;40368;49.350;8.152;2022-07-29T03:46:55;17;;;24;;
54458;SDS011;40368;49.350;8.152;2022-07-29T03:48:46;29;;;74;;
54458;SDS011;40368;49.350;8.152;2022-07-29T03:50:02;24;;;40;;
54458;SDS011;40368;49.350;8.152;2022-07-29T03:51:51;24;;;39;;
54458;SDS011;40368;49.350;8.152;2022-07-29T03:53:42;26;;;96;;
54458;SDS011;40368;49.350;8.152;2022-07-29T03:54:57;22;;;32;;
54458;SDS011;40368;49.350;8.152;2022-07-29T03:56:48;18;;;38;;
54458;SDS011;40368;49.350;8.152;2022-07-29T03:58:40;22;;;48;;
54458;SDS011;40368;49.350;8.152;2022-07-29T03:59:53;20;;;56;;
54458;SDS011;40368;49.350;8.152;2022-07-29T04:02:59;21;;;55;;
54458;SDS011;40368;49.350;8.152;2022-07-29T04:04:49;20;;;32;;
54458;SDS011;40368;49.350;8.152;2022-07-29T04:06:41;23;;;52;;
54458;SDS011;40368;49.350;8.152;2022-07-29T04:07:55;18;;;61;;
54458;SDS011;40368;49.350;8.152;2022-07-29T04:09:46;27;;;56;;
54458;SDS011;40368;49.350;8.152;2022-07-29T04:11:00;26;;;46;;
54458;SDS011;40368;49.350;8.152;2022-07-29T04:12:51;22;;;42;;
54458;SDS011;40368;49.350;8.152;2022-07-29T04:14:42;31;;;82;;
54458;SDS011;40368;49.350;8.152;2022-07-29T04:15:57;24;;;59;;
54458;SDS011;40368;49.350;8.152;2022-07-29T04:17:48;18;;;37;;
54458;SDS011;40368;49.350;8.152;2022-07-29T04:19:39;27;;;32;;
54458;SDS011;40368;49.350;8.152;2022-07-29T04:20:53;15;;;23;;
54458;SDS011;40368;49.350;8.152;2022-07-29T04:22:44;26;;;48;;
54458;SDS011;40368;49.350;8.152;2022-07-29T04:23:58;24;;;40;;
54458;SDS011;40368;49.350;8.152;2022-07-29T04:25:50;27;;;45;;
54458;SDS011;40368;49.350;8.152;2022-07-29T04:27:41;23;;;44;;
54458;SDS011;40368;49.350;8.152;2022-07-29T04:28:55;28;;;31;;
54458;SDS011;40368;49.350;8.152;2022-07-29T04:30:09;29;;;113;;
54458;SDS011;40368;49.350;8.152;2022-07-29T04:33:43;23;;;38;;
54458;SDS011;40368;49.350;8.152;2022-07-29T04:34:57;19;;;27;;
54458;SDS011;40368;49.350;8.152;2022-07-29T04:36:49;19;;;36;;
54458;SDS011;40368;49.350;8.152;2022-07-29T04:38:40;21;;;49;;
54458;SDS011;40368;49.350;8.152;2022-07-29T04:39:54;27;;;42;;
54458;SDS011;40368;49.350;8.152;2022-07-29T04:41:45;24;;;85;;
54458;SDS011;40368;49.350;8.152;2022-07-29T04:42:59;20;;;30;;
54458;SDS011;40368;49.350;8.152;2022-07-29T04:44:50;20;;;50;;
54458;SDS011;40368;49.350;8.152;2022-07-29T04:46:41;26;;;46;;
54458;SDS011;40368;49.350;8.152;2022-07-29T04:47:56;20;;;25;;
54458;SDS011;40368;49.350;8.152;2022-07-29T04:49:47;23;;;39;;
54458;SDS011;40368;49.350;8.152;2022-07-29T04:51:38;21;;;28;;
54458;SDS011;40368;49.350;8.152;2022-07-29T04:52:52;21;;;23;;
54458;SDS011;40368;49.350;8.152;2022-07-29T04:54:43;18;;;31;;
54458;SDS011;40368;49.350;8.152;2022-07-29T04:55:57;23;;;44;;
54458;SDS011;40368;49.350;8.152;2022-07-29T04:57:49;20;;;23;;
54458;SDS011;40368;49.350;8.152;2022-07-29T04:59:40;20;;;35;;
54458;SDS011;40368;49.350;8.152;2022-07-29T05:00:54;19;;;38;;
54458;SDS011;40368;49.350;8.152;2022-07-29T05:02:45;16;;;26;;
54458;SDS011;40368;49.350;8.152;2022-07-29T05:03:59;20;;;28;;
54458;SDS011;40368;49.350;8.152;2022-07-29T05:05:50;23;;;46;;
54458;SDS011;40368;49.350;8.152;2022-07-29T05:07:42;19;;;44;;
54458;SDS011;40368;49.350;8.152;2022-07-29T05:08:56;19;;;26;;
54458;SDS011;40368;49.350;8.152;2022-07-29T05:10:47;19;;;65;;
54458;SDS011;40368;49.350;8.152;2022-07-29T05:12:38;18;;;30;;
54458;SDS011;40368;49.350;8.152;2022-07-29T05:13:52;21;;;29;;
54458;SDS011;40368;49.350;8.152;2022-07-29T05:15:43;16;;;35;;
54458;SDS011;40368;49.350;8.152;2022-07-29T05:16:57;20;;;72;;
54458;SDS011;40368;49.350;8.152;2022-07-29T05:18:49;22;;;55;;
54458;SDS011;40368;49.350;8.152;2022-07-29T05:20:40;19;;;60;;
54458;SDS011;40368;49.350;8.152;2022-07-29T05:21:54;19;;;28;;
54458;SDS011;40368;49.350;8.152;2022-07-29T05:23:45;19;;;30;;
54458;SDS011;40368;49.350;8.152;2022-07-29T05:24:59;20;;;37;;
54458;SDS011;40368;49.350;8.152;2022-07-29T05:26:50;20;;;40;;
54458;SDS011;40368;49.350;8.152;2022-07-29T05:28:42;19;;;37;;
54458;SDS011;40368;49.350;8.152;2022-07-29T05:29:56;19;;;38;;
54458;SDS011;40368;49.350;8.152;2022-07-29T05:31:47;18;;;36;;
54458;SDS011;40368;49.350;8.152;2022-07-29T05:33:01;20;;;67;;
54458;SDS011;40368;49.350;8.152;2022-07-29T05:34:44;20;;;57;;
54458;SDS011;40368;49.350;8.152;2022-07-29T05:36:35;20;;;62;;
54458;SDS011;40368;49.350;8.152;2022-07-29T05:37:50;19;;;79;;
54458;SDS011;40368;49.350;8.152;2022-07-29T05:39:41;20;;;25;;
54458;SDS011;40368;49.350;8.152;2022-07-29T05:40:56;17;;;98;;
54458;SDS011;40368;49.350;8.152;2022-07-29T05:42:46;19;;;58;;
54458;SDS011;40368;49.350;8.152;2022-07-29T05:44:00;20;;;52;;
54458;SDS011;40368;49.350;8.152;2022-07-29T05:45:51;19;;;30;;
54458;SDS011;40368;49.350;8.152;2022-07-29T05:47:42;17;;;39;;
54458;SDS011;40368;49.350;8.152;2022-07-29T05:48:57;19;;;60;;
54458;SDS011;40368;49.350;8.152;2022-07-29T05:50:48;18;;;41;;
54458;SDS011;40368;49.350;8.152;2022-07-29T05:52:39;18;;;24;;
54458;SDS011;40368;49.350;8.152;2022-07-29T05:53:53;19;;;24;;
54458;SDS011;40368;49.350;8.152;2022-07-29T05:55:44;19;;;50;;
54458;SDS011;40368;49.350;8.152;2022-07-29T05:56:58;13;;;39;;
54458;SDS011;40368;49.350;8.152;2022-07-29T05:58:50;22;;;55;;
54458;SDS011;40368;49.350;8.152;2022-07-29T06:00:41;19;;;38;;
54458;SDS011;40368;49.350;8.152;2022-07-29T06:01:55;19;;;48;;
54458;SDS011;40368;49.350;8.152;2022-07-29T06:03:46;19;;;32;;
54458;SDS011;40368;49.350;8.152;2022-07-29T06:05:37;19;;;46;;
54458;SDS011;40368;49.350;8.152;2022-07-29T06:06:51;16;;;29;;
54458;SDS011;40368;49.350;8.152;2022-07-29T06:08:43;18;;;55;;
54458;SDS011;40368;49.350;8.152;2022-07-29T06:09:57;17;;;41;;
54458;SDS011;40368;49.350;8.152;2022-07-29T06:11:48;19;;;31;;
54458;SDS011;40368;49.350;8.152;2022-07-29T06:13:39;18;;;28;;
54458;SDS011;40368;49.350;8.152;2022-07-29T06:14:53;18;;;40;;
54458;SDS011;40368;49.350;8.152;2022-07-29T06:16:45;17;;;60;;
54458;SDS011;40368;49.350;8.152;2022-07-29T06:17:58;18;;;31;;
54458;SDS011;40368;49.350;8.152;2022-07-29T06:19:50;18;;;38;;
54458;SDS011;40368;49.350;8.152;2022-07-29T06:21:41;22;;;53;;
54458;SDS011;40368;49.350;8.152;2022-07-29T06:22:55;16;;;27;;
54458;SDS011;40368;49.350;8.152;2022-07-29T06:24:46;19;;;50;;
54458;SDS011;40368;49.350;8.152;2022-07-29T06:26:00;17;;;43;;
54458;SDS011;40368;49.350;8.152;2022-07-29T06:27:51;16;;;42;;
54458;SDS011;40368;49.350;8.152;2022-07-29T06:29:43;15;;;65;;
54458;SDS011;40368;49.350;8.152;2022-07-29T06:30:57;17;;;37;;
54458;SDS011;40368;49.350;8.152;2022-07-29T06:32:48;16;;;28;;
54458;SDS011;40368;49.350;8.152;2022-07-29T06:35:45;17;;;42;;
54458;SDS011;40368;49.350;8.152;2022-07-29T06:36:59;16;;;40;;
54458;SDS011;40368;49.350;8.152;2022-07-29T06:38:50;15;;;28;;
54458;SDS011;40368;49.350;8.152;2022-07-29T06:40:42;15;;;40;;
54458;SDS011;40368;49.350;8.152;2022-07-29T06:41:56;18;;;49;;
54458;SDS011;40368;49.350;8.152;2022-07-29T06:43:47;17;;;66;;
54458;SDS011;40368;49.350;8.152;2022-07-29T06:45:38;17;;;40;;
54458;SDS011;40368;49.350;8.152;2022-07-29T06:46:52;17;;;57;;
54458;SDS011;40368;49.350;8.152;2022-07-29T06:48:43;16;;;28;;
54458;SDS011;40368;49.350;8.152;2022-07-29T06:49:57;21;;;77;;
54458;SDS011;40368;49.350;8.152;2022-07-29T06:51:49;19;;;61;;
54458;SDS011;40368;49.350;8.152;2022-07-29T06:53:40;15;;;28;;
54458;SDS011;40368;49.350;8.152;2022-07-29T06:54:54;17;;;31;;
54458;SDS011;40368;49.350;8.152;2022-07-29T06:56:45;15;;;48;;
54458;SDS011;40368;49.350;8.152;2022-07-29T06:57:22;20;;;54;;
54458;SDS011;40368;49.350;8.152;2022-07-29T06:57:59;15;;;23;;
54458;SDS011;40368;49.350;8.152;2022-07-29T06:59:50;19;;;46;;
54458;SDS011;40368;49.350;8.152;2022-07-29T07:01:42;17;;;63;;
54458;SDS011;40368;49.350;8.152;2022-07-29T07:02:56;19;;;55;;
54458;SDS011;40368;49.350;8.152;2022-07-29T07:04:47;24;;;103;;
54458;SDS011;40368;49.350;8.152;2022-07-29T07:06:38;15;;;55;;
54458;SDS011;40368;49.350;8.152;2022-07-29T07:07:52;17;;;31;;
54458;SDS011;40368;49.350;8.152;2022-07-29T07:09:44;17;;;49;;
54458;SDS011;40368;49.350;8.152;2022-07-29T07:10:58;18;;;39;;
54458;SDS011;40368;49.350;8.152;2022-07-29T07:12:49;17;;;39;;
54458;SDS011;40368;49.350;8.152;2022-07-29T07:14:40;16;;;33;;
54458;SDS011;40368;49.350;8.152;2022-07-29T07:15:54;17;;;29;;
54458;SDS011;40368;49.350;8.152;2022-07-29T07:17:45;19;;;29;;
54458;SDS011;40368;49.350;8.152;2022-07-29T07:19:00;18;;;33;;
54458;SDS011;40368;49.350;8.152;2022-07-29T07:20:51;17;;;28;;
54458;SDS011;40368;49.350;8.152;2022-07-29T07:22:42;18;;;65;;
54458;SDS011;40368;49.350;8.152;2022-07-29T07:23:56;20;;;36;;
54458;SDS011;40368;49.350;8.152;2022-07-29T07:25:47;15;;;26;;
54458;SDS011;40368;49.350;8.152;2022-07-29T07:27:38;17;;;26;;
54458;SDS011;40368;49.350;8.152;2022-07-29T07:28:52;19;;;70;;
54458;SDS011;40368;49.350;8.152;2022-07-29T07:29:29;15;;;36;;
54458;SDS011;40368;49.350;8.152;2022-07-29T07:30:44;17;;;50;;
54458;SDS011;40368;49.350;8.152;2022-07-29T07:31:58;21;;;67;;
54458;SDS011;40368;49.350;8.152;2022-07-29T07:33:49;17;;;35;;
54458;SDS011;40368;49.350;8.152;2022-07-29T07:35:40;16;;;45;;
54458;SDS011;40368;49.350;8.152;2022-07-29T07:36:54;19;;;38;;
54458;SDS011;40368;49.350;8.152;2022-07-29T07:38:45;15;;;27;;
54458;SDS011;40368;49.350;8.152;2022-07-29T07:40:00;18;;;39;;
54458;SDS011;40368;49.350;8.152;2022-07-29T07:41:51;17;;;32;;
54458;SDS011;40368;49.350;8.152;2022-07-29T07:43:42;20;;;59;;
54458;SDS011;40368;49.350;8.152;2022-07-29T07:44:19;16;;;53;;
54458;SDS011;40368;49.350;8.152;2022-07-29T07:44:56;20;;;67;;
54458;SDS011;40368;49.350;8.152;2022-07-29T07:46:39;18;;;50;;
54458;SDS011;40368;49.350;8.152;2022-07-29T07:48:30;24;;;74;;
54458;SDS011;40368;49.350;8.152;2022-07-29T07:49:44;23;;;70;;
54458;SDS011;40368;49.350;8.152;2022-07-29T07:50:58;28;;;46;;
54458;SDS011;40368;49.350;8.152;2022-07-29T07:51:36;21;;;40;;
54458;SDS011;40368;49.350;8.152;2022-07-29T07:52:50;19;;;34;;
54458;SDS011;40368;49.350;8.152;2022-07-29T07:54:41;21;;;62;;
54458;SDS011;40368;49.350;8.152;2022-07-29T07:55:55;18;;;47;;
54458;SDS011;40368;49.350;8.152;2022-07-29T07:57:47;18;;;46;;
54458;SDS011;40368;49.350;8.152;2022-07-29T07:59:00;17;;;37;;
54458;SDS011;40368;49.350;8.152;2022-07-29T08:00:51;21;;;52;;
54458;SDS011;40368;49.350;8.152;2022-07-29T08:02:43;17;;;32;;
54458;SDS011;40368;49.350;8.152;2022-07-29T08:03:57;17;;;25;;
54458;SDS011;40368;49.350;8.152;2022-07-29T08:05:48;15;;;30;;
54458;SDS011;40368;49.350;8.152;2022-07-29T08:07:39;16;;;22;;
54458;SDS011;40368;49.350;8.152;2022-07-29T08:08:53;19;;;64;;
54458;SDS011;40368;49.350;8.152;2022-07-29T08:10:45;19;;;43;;
54458;SDS011;40368;49.350;8.152;2022-07-29T08:11:59;19;;;39;;
54458;SDS011;40368;49.350;8.152;2022-07-29T08:13:50;18;;;37;;
54458;SDS011;40368;49.350;8.152;2022-07-29T08:15:41;18;;;71;;
54458;SDS011;40368;49.350;8.152;2022-07-29T08:16:55;20;;;32;;
54458;SDS011;40368;49.350;8.152;2022-07-29T08:18:46;22;;;51;;
54458;SDS011;40368;49.350;8.152;2022-07-29T08:20:00;20;;;47;;
54458;SDS011;40368;49.350;8.152;2022-07-29T08:21:52;17;;;43;;
54458;SDS011;40368;49.350;8.152;2022-07-29T08:23:43;18;;;64;;
54458;SDS011;40368;49.350;8.152;2022-07-29T08:24:57;19;;;57;;
54458;SDS011;40368;49.350;8.152;2022-07-29T08:26:48;21;;;36;;
54458;SDS011;40368;49.350;8.152;2022-07-29T08:28:40;19;;;33;;
54458;SDS011;40368;49.350;8.152;2022-07-29T08:29:53;17;;;24;;
54458;SDS011;40368;49.350;8.152;2022-07-29T08:31:45;18;;;45;;
54458;SDS011;40368;49.350;8.152;2022-07-29T08:32:59;19;;;34;;
54458;SDS011;40368;49.350;8.152;2022-07-29T08:34:50;19;;;49;;
54458;SDS011;40368;49.350;8.152;2022-07-29T08:36:41;18;;;80;;
54458;SDS011;40368;49.350;8.152;2022-07-29T08:37:55;21;;;40;;
54458;SDS011;40368;49.350;8.152;2022-07-29T08:39:46;26;;;82;;
54458;SDS011;40368;49.350;8.152;2022-07-29T08:41:01;26;;;51;;
54458;SDS011;40368;49.350;8.152;2022-07-29T08:43:45;22;;;89;;
54458;SDS011;40368;49.350;8.152;2022-07-29T08:45:41;24;;;52;;
54458;SDS011;40368;49.350;8.152;2022-07-29T08:46:42;21;;;66;;
54458;SDS011;40368;49.350;8.152;2022-07-29T08:48:34;23;;;68;;
54458;SDS011;40368;49.350;8.152;2022-07-29T08:49:48;22;;;59;;
54458;SDS011;40368;49.350;8.152;2022-07-29T08:51:39;23;;;49;;
54458;SDS011;40368;49.350;8.152;2022-07-29T08:52:53;22;;;74;;
54458;SDS011;40368;49.350;8.152;2022-07-29T08:54:44;23;;;52;;
54458;SDS011;40368;49.350;8.152;2022-07-29T08:56:35;22;;;97;;
54458;SDS011;40368;49.350;8.152;2022-07-29T08:57:50;21;;;58;;
54458;SDS011;40368;49.350;8.152;2022-07-29T08:59:41;20;;;34;;
54458;SDS011;40368;49.350;8.152;2022-07-29T09:01:33;22;;;55;;
54458;SDS011;40368;49.350;8.152;2022-07-29T09:02:47;19;;;27;;
54458;SDS011;40368;49.350;8.152;2022-07-29T09:04:37;22;;;62;;
54458;SDS011;40368;49.350;8.152;2022-07-29T09:05:51;21;;;51;;
54458;SDS011;40368;49.350;8.152;2022-07-29T09:07:43;24;;;35;;
54458;SDS011;40368;49.350;8.152;2022-07-29T09:09:34;21;;;53;;
54458;SDS011;40368;49.350;8.152;2022-07-29T09:10:48;23;;;56;;
54458;SDS011;40368;49.350;8.152;2022-07-29T09:12:39;24;;;80;;
54458;SDS011;40368;49.350;8.152;2022-07-29T09:13:53;25;;;73;;
54458;SDS011;40368;49.350;8.152;2022-07-29T09:15:44;21;;;43;;
54458;SDS011;40368;49.350;8.152;2022-07-29T09:17:39;24;;;77;;
54458;SDS011;40368;49.350;8.152;2022-07-29T09:18:51;24;;;103;;
54458;SDS011;40368;49.350;8.152;2022-07-29T09:20:41;21;;;71;;
54458;SDS011;40368;49.350;8.152;2022-07-29T09:22:32;24;;;89;;
54458;SDS011;40368;49.350;8.152;2022-07-29T09:23:59;19;;;62;;
54458;SDS011;40368;49.350;8.152;2022-07-29T09:24:24;22;;;75;;
54458;SDS011;40368;49.350;8.152;2022-07-29T09:25:38;23;;;65;;
54458;SDS011;40368;49.350;8.152;2022-07-29T09:26:52;19;;;87;;
54458;SDS011;40368;49.350;8.152;2022-07-29T09:28:43;21;;;82;;
54458;SDS011;40368;49.350;8.152;2022-07-29T09:30:34;23;;;89;;
54458;SDS011;40368;49.350;8.152;2022-07-29T09:31:49;20;;;62;;
54458;SDS011;40368;49.350;8.152;2022-07-29T09:33:39;20;;;44;;
54458;SDS011;40368;49.350;8.152;2022-07-29T09:35:25;23;;;86;;
54458;SDS011;40368;49.350;8.152;2022-07-29T09:36:45;24;;;80;;
54458;SDS011;40368;49.350;8.152;2022-07-29T09:38:36;21;;;75;;
54458;SDS011;40368;49.350;8.152;2022-07-29T09:39:50;21;;;78;;
54458;SDS011;40368;49.350;8.152;2022-07-29T09:41:49;21;;;70;;
54458;SDS011;40368;49.350;8.152;2022-07-29T09:43:33;20;;;83;;
54458;SDS011;40368;49.350;8.152;2022-07-29T09:44:47;22;;;78;;
54458;SDS011;40368;49.350;8.152;2022-07-29T09:47:45;21;;;63;;
54458;SDS011;40368;49.350;8.152;2022-07-29T09:49:35;25;;;67;;
54458;SDS011;40368;49.350;8.152;2022-07-29T09:50:49;22;;;49;;
54458;SDS011;40368;49.350;8.152;2022-07-29T09:52:44;23;;;51;;
54458;SDS011;40368;49.350;8.152;2022-07-29T09:54:31;21;;;41;;
54458;SDS011;40368;49.350;8.152;2022-07-29T09:55:46;20;;;80;;
54458;SDS011;40368;49.350;8.152;2022-07-29T09:57:37;21;;;66;;
54458;SDS011;40368;49.350;8.152;2022-07-29T09:58:55;19;;;83;;
54458;SDS011;40368;49.350;8.152;2022-07-29T10:00:42;24;;;73;;
54458;SDS011;40368;49.350;8.152;2022-07-29T10:02:34;22;;;55;;
54458;SDS011;40368;49.350;8.152;2022-07-29T10:03:50;23;;;95;;
54458;SDS011;40368;49.350;8.152;2022-07-29T10:05:38;20;;;75;;
54458;SDS011;40368;49.350;8.152;2022-07-29T10:06:56;19;;;55;;
54458;SDS011;40368;49.350;8.152;2022-07-29T10:08:44;22;;;40;;
54458;SDS011;40368;49.350;8.152;2022-07-29T10:10:35;21;;;55;;
54458;SDS011;40368;49.350;8.152;2022-07-29T10:12:01;22;;;72;;
54458;SDS011;40368;49.350;8.152;2022-07-29T10:13:40;20;;;49;;
54458;SDS011;40368;49.350;8.152;2022-07-29T10:14:54;18;;;75;;
54458;SDS011;40368;49.350;8.152;2022-07-29T10:16:45;21;;;80;;
54458;SDS011;40368;49.350;8.152;2022-07-29T10:18:37;20;;;32;;